sensor_id;sensor_type;location;lat;lon;timestamp;P1;durP1;ratioP1;P2;durP2;ratioP2
35114;SDS011;21292;52.416;13.046;2023-07-13T00:01:13;6.00;;;2.97;;
35114;SDS011;21292;52.416;13.046;2023-07-13T00:03:43;6.13;;;3.20;;
35114;SDS011;21292;52.416;13.046;2023-07-13T00:06:12;5.03;;;3.10;;
35114;SDS011;21292;52.416;13.046;2023-07-13T00:08:40;5.10;;;3.08;;
35114;SDS011;21292;52.416;13.046;2023-07-13T00:11:09;6.40;;;3.00;;
35114;SDS011;21292;52.416;13.046;2023-07-13T00:13:38;6.30;;;3.17;;
35114;SDS011;21292;52.416;13.046;2023-07-13T00:16:07;6.32;;;3.28;;
35114;SDS011;21292;52.416;13.046;2023-07-13T00:18:36;5.95;;;3.20;;
35114;SDS011;21292;52.416;13.046;2023-07-13T00:21:05;5.63;;;3.25;;
35114;SDS011;21292;52.416;13.046;2023-07-13T00:23:33;5.63;;;3.00;;
35114;SDS011;21292;52.416;13.046;2023-07-13T00:26:04;6.80;;;3.85;;
35114;SDS011;21292;52.416;13.046;2023-07-13T00:28:35;4.85;;;3.15;;
35114;SDS011;21292;52.416;13.046;2023-07-13T00:31:03;6.80;;;3.53;;
35114;SDS011;21292;52.416;13.046;2023-07-13T00:33:35;4.93;;;3.53;;
35114;SDS011;21292;52.416;13.046;2023-07-13T00:36:04;6.75;;;3.40;;
35114;SDS011;21292;52.416;13.046;2023-07-13T00:38:33;4.55;;;3.05;;
35114;SDS011;21292;52.416;13.046;2023-07-13T00:41:02;5.85;;;3.00;;
35114;SDS011;21292;52.416;13.046;2023-07-13T00:43:31;4.72;;;3.47;;
35114;SDS011;21292;52.416;13.046;2023-07-13T00:46:12;4.78;;;2.80;;
35114;SDS011;21292;52.416;13.046;2023-07-13T00:48:46;5.55;;;3.35;;
35114;SDS011;21292;52.416;13.046;2023-07-13T00:51:17;4.22;;;3.80;;
35114;SDS011;21292;52.416;13.046;2023-07-13T00:53:50;4.50;;;3.80;;
35114;SDS011;21292;52.416;13.046;2023-07-13T00:56:19;6.47;;;3.60;;
35114;SDS011;21292;52.416;13.046;2023-07-13T00:58:48;8.73;;;3.60;;
35114;SDS011;21292;52.416;13.046;2023-07-13T01:01:18;11.30;;;3.85;;
35114;SDS011;21292;52.416;13.046;2023-07-13T01:03:46;6.70;;;3.33;;
35114;SDS011;21292;52.416;13.046;2023-07-13T01:06:14;7.53;;;3.88;;
35114;SDS011;21292;52.416;13.046;2023-07-13T01:08:44;5.45;;;3.22;;
35114;SDS011;21292;52.416;13.046;2023-07-13T01:11:13;5.85;;;3.20;;
35114;SDS011;21292;52.416;13.046;2023-07-13T01:13:46;4.88;;;3.33;;
35114;SDS011;21292;52.416;13.046;2023-07-13T01:16:16;7.18;;;2.97;;
35114;SDS011;21292;52.416;13.046;2023-07-13T01:18:50;5.72;;;3.40;;
35114;SDS011;21292;52.416;13.046;2023-07-13T01:21:19;5.53;;;2.90;;
35114;SDS011;21292;52.416;13.046;2023-07-13T01:23:47;13.23;;;3.55;;
35114;SDS011;21292;52.416;13.046;2023-07-13T01:26:16;4.50;;;3.20;;
35114;SDS011;21292;52.416;13.046;2023-07-13T01:28:44;10.93;;;3.72;;
35114;SDS011;21292;52.416;13.046;2023-07-13T01:31:12;5.60;;;3.38;;
35114;SDS011;21292;52.416;13.046;2023-07-13T01:33:40;6.05;;;3.65;;
35114;SDS011;21292;52.416;13.046;2023-07-13T01:36:09;4.55;;;2.97;;
35114;SDS011;21292;52.416;13.046;2023-07-13T01:38:39;3.95;;;3.30;;
35114;SDS011;21292;52.416;13.046;2023-07-13T01:41:10;6.00;;;3.50;;
35114;SDS011;21292;52.416;13.046;2023-07-13T01:43:39;8.63;;;3.47;;
35114;SDS011;21292;52.416;13.046;2023-07-13T01:46:09;4.53;;;3.20;;
35114;SDS011;21292;52.416;13.046;2023-07-13T01:48:49;5.80;;;3.27;;
35114;SDS011;21292;52.416;13.046;2023-07-13T01:51:21;4.65;;;3.15;;
35114;SDS011;21292;52.416;13.046;2023-07-13T01:53:50;6.93;;;3.63;;
35114;SDS011;21292;52.416;13.046;2023-07-13T01:56:19;6.47;;;3.95;;
35114;SDS011;21292;52.416;13.046;2023-07-13T01:58:48;7.63;;;3.40;;
35114;SDS011;21292;52.416;13.046;2023-07-13T02:01:16;10.25;;;3.60;;
35114;SDS011;21292;52.416;13.046;2023-07-13T02:03:45;8.13;;;3.72;;
35114;SDS011;21292;52.416;13.046;2023-07-13T02:06:15;7.70;;;3.55;;
35114;SDS011;21292;52.416;13.046;2023-07-13T02:08:43;7.95;;;4.00;;
35114;SDS011;21292;52.416;13.046;2023-07-13T02:11:13;6.25;;;3.90;;
35114;SDS011;21292;52.416;13.046;2023-07-13T02:13:42;6.70;;;4.00;;
35114;SDS011;21292;52.416;13.046;2023-07-13T02:16:12;6.40;;;3.80;;
35114;SDS011;21292;52.416;13.046;2023-07-13T02:18:42;6.78;;;3.97;;
35114;SDS011;21292;52.416;13.046;2023-07-13T02:21:10;5.43;;;3.97;;
35114;SDS011;21292;52.416;13.046;2023-07-13T02:23:38;6.78;;;4.65;;
35114;SDS011;21292;52.416;13.046;2023-07-13T02:26:06;6.10;;;3.92;;
35114;SDS011;21292;52.416;13.046;2023-07-13T02:28:39;7.60;;;3.63;;
35114;SDS011;21292;52.416;13.046;2023-07-13T02:31:09;5.47;;;3.58;;
35114;SDS011;21292;52.416;13.046;2023-07-13T02:33:38;9.45;;;3.78;;
35114;SDS011;21292;52.416;13.046;2023-07-13T02:36:06;7.50;;;3.67;;
35114;SDS011;21292;52.416;13.046;2023-07-13T02:38:36;8.48;;;3.78;;
35114;SDS011;21292;52.416;13.046;2023-07-13T02:41:05;4.38;;;3.45;;
35114;SDS011;21292;52.416;13.046;2023-07-13T02:43:35;6.80;;;4.38;;
35114;SDS011;21292;52.416;13.046;2023-07-13T02:46:05;6.30;;;3.72;;
35114;SDS011;21292;52.416;13.046;2023-07-13T02:48:35;7.35;;;4.57;;
35114;SDS011;21292;52.416;13.046;2023-07-13T02:51:04;4.65;;;4.13;;
35114;SDS011;21292;52.416;13.046;2023-07-13T02:53:33;6.85;;;4.53;;
35114;SDS011;21292;52.416;13.046;2023-07-13T02:56:04;7.50;;;4.13;;
35114;SDS011;21292;52.416;13.046;2023-07-13T02:58:34;6.22;;;4.40;;
35114;SDS011;21292;52.416;13.046;2023-07-13T03:01:07;11.32;;;5.53;;
35114;SDS011;21292;52.416;13.046;2023-07-13T03:03:36;5.97;;;4.22;;
35114;SDS011;21292;52.416;13.046;2023-07-13T03:06:05;6.50;;;3.90;;
35114;SDS011;21292;52.416;13.046;2023-07-13T03:08:35;5.57;;;4.10;;
35114;SDS011;21292;52.416;13.046;2023-07-13T03:11:04;6.53;;;4.20;;
35114;SDS011;21292;52.416;13.046;2023-07-13T03:13:34;6.95;;;4.50;;
35114;SDS011;21292;52.416;13.046;2023-07-13T03:16:17;8.90;;;4.63;;
35114;SDS011;21292;52.416;13.046;2023-07-13T03:18:46;8.15;;;4.55;;
35114;SDS011;21292;52.416;13.046;2023-07-13T03:21:15;8.38;;;4.25;;
35114;SDS011;21292;52.416;13.046;2023-07-13T03:23:45;6.00;;;4.03;;
35114;SDS011;21292;52.416;13.046;2023-07-13T03:26:15;6.63;;;3.80;;
35114;SDS011;21292;52.416;13.046;2023-07-13T03:28:46;7.10;;;4.40;;
35114;SDS011;21292;52.416;13.046;2023-07-13T03:31:17;6.75;;;4.15;;
35114;SDS011;21292;52.416;13.046;2023-07-13T03:33:47;6.32;;;4.13;;
35114;SDS011;21292;52.416;13.046;2023-07-13T03:36:18;6.85;;;4.55;;
35114;SDS011;21292;52.416;13.046;2023-07-13T03:38:49;5.88;;;4.57;;
35114;SDS011;21292;52.416;13.046;2023-07-13T03:41:18;7.43;;;4.97;;
35114;SDS011;21292;52.416;13.046;2023-07-13T03:43:49;7.37;;;4.30;;
35114;SDS011;21292;52.416;13.046;2023-07-13T03:46:19;6.97;;;4.20;;
35114;SDS011;21292;52.416;13.046;2023-07-13T03:48:48;8.38;;;4.47;;
35114;SDS011;21292;52.416;13.046;2023-07-13T03:51:18;6.75;;;4.38;;
35114;SDS011;21292;52.416;13.046;2023-07-13T03:53:47;9.00;;;4.32;;
35114;SDS011;21292;52.416;13.046;2023-07-13T03:56:17;5.47;;;3.90;;
35114;SDS011;21292;52.416;13.046;2023-07-13T03:58:46;5.35;;;4.13;;
35114;SDS011;21292;52.416;13.046;2023-07-13T04:01:22;8.07;;;3.70;;
35114;SDS011;21292;52.416;13.046;2023-07-13T04:03:54;6.18;;;4.25;;
35114;SDS011;21292;52.416;13.046;2023-07-13T04:06:23;4.85;;;3.78;;
35114;SDS011;21292;52.416;13.046;2023-07-13T04:08:55;5.10;;;3.38;;
35114;SDS011;21292;52.416;13.046;2023-07-13T04:11:25;4.25;;;3.70;;
35114;SDS011;21292;52.416;13.046;2023-07-13T04:13:55;7.97;;;3.55;;
35114;SDS011;21292;52.416;13.046;2023-07-13T04:16:25;7.10;;;3.20;;
35114;SDS011;21292;52.416;13.046;2023-07-13T04:18:53;4.10;;;3.10;;
35114;SDS011;21292;52.416;13.046;2023-07-13T04:21:26;4.35;;;3.28;;
35114;SDS011;21292;52.416;13.046;2023-07-13T04:23:55;5.00;;;3.03;;
35114;SDS011;21292;52.416;13.046;2023-07-13T04:26:25;4.93;;;3.15;;
35114;SDS011;21292;52.416;13.046;2023-07-13T04:28:57;7.22;;;3.13;;
35114;SDS011;21292;52.416;13.046;2023-07-13T04:31:36;7.65;;;3.45;;
35114;SDS011;21292;52.416;13.046;2023-07-13T04:34:04;7.20;;;3.38;;
35114;SDS011;21292;52.416;13.046;2023-07-13T04:36:35;4.28;;;3.17;;
35114;SDS011;21292;52.416;13.046;2023-07-13T04:39:04;6.22;;;3.35;;
35114;SDS011;21292;52.416;13.046;2023-07-13T04:41:33;4.93;;;3.28;;
35114;SDS011;21292;52.416;13.046;2023-07-13T04:44:02;6.70;;;3.25;;
35114;SDS011;21292;52.416;13.046;2023-07-13T04:46:32;4.93;;;2.92;;
35114;SDS011;21292;52.416;13.046;2023-07-13T04:49:03;3.97;;;2.95;;
35114;SDS011;21292;52.416;13.046;2023-07-13T04:51:32;5.00;;;2.88;;
35114;SDS011;21292;52.416;13.046;2023-07-13T04:54:00;5.72;;;2.85;;
35114;SDS011;21292;52.416;13.046;2023-07-13T04:56:28;4.63;;;2.85;;
35114;SDS011;21292;52.416;13.046;2023-07-13T04:58:57;5.32;;;3.00;;
35114;SDS011;21292;52.416;13.046;2023-07-13T05:01:25;5.93;;;2.20;;
35114;SDS011;21292;52.416;13.046;2023-07-13T05:03:55;3.00;;;2.53;;
35114;SDS011;21292;52.416;13.046;2023-07-13T05:06:26;9.82;;;2.80;;
35114;SDS011;21292;52.416;13.046;2023-07-13T05:08:55;4.10;;;2.28;;
35114;SDS011;21292;52.416;13.046;2023-07-13T05:11:23;9.27;;;2.60;;
35114;SDS011;21292;52.416;13.046;2023-07-13T05:13:51;5.65;;;2.50;;
35114;SDS011;21292;52.416;13.046;2023-07-13T05:16:19;7.60;;;2.80;;
35114;SDS011;21292;52.416;13.046;2023-07-13T05:18:48;2.78;;;2.17;;
35114;SDS011;21292;52.416;13.046;2023-07-13T05:21:18;4.75;;;2.20;;
35114;SDS011;21292;52.416;13.046;2023-07-13T05:23:48;6.75;;;2.38;;
35114;SDS011;21292;52.416;13.046;2023-07-13T05:26:16;7.20;;;2.55;;
35114;SDS011;21292;52.416;13.046;2023-07-13T05:28:44;4.50;;;2.70;;
35114;SDS011;21292;52.416;13.046;2023-07-13T05:31:12;3.53;;;2.10;;
35114;SDS011;21292;52.416;13.046;2023-07-13T05:33:41;4.50;;;2.08;;
35114;SDS011;21292;52.416;13.046;2023-07-13T05:36:09;4.07;;;1.83;;
35114;SDS011;21292;52.416;13.046;2023-07-13T05:38:41;3.38;;;2.08;;
35114;SDS011;21292;52.416;13.046;2023-07-13T05:41:09;3.53;;;2.00;;
35114;SDS011;21292;52.416;13.046;2023-07-13T05:43:39;3.58;;;1.98;;
35114;SDS011;21292;52.416;13.046;2023-07-13T05:46:08;6.45;;;2.78;;
35114;SDS011;21292;52.416;13.046;2023-07-13T05:48:36;3.80;;;2.17;;
35114;SDS011;21292;52.416;13.046;2023-07-13T05:51:04;5.45;;;2.25;;
35114;SDS011;21292;52.416;13.046;2023-07-13T05:53:33;3.40;;;2.03;;
35114;SDS011;21292;52.416;13.046;2023-07-13T05:56:03;6.13;;;2.33;;
35114;SDS011;21292;52.416;13.046;2023-07-13T05:58:32;3.88;;;2.70;;
35114;SDS011;21292;52.416;13.046;2023-07-13T06:01:03;5.85;;;2.28;;
35114;SDS011;21292;52.416;13.046;2023-07-13T06:03:33;5.93;;;2.38;;
35114;SDS011;21292;52.416;13.046;2023-07-13T06:06:01;4.32;;;1.70;;
35114;SDS011;21292;52.416;13.046;2023-07-13T06:08:30;5.78;;;2.00;;
35114;SDS011;21292;52.416;13.046;2023-07-13T06:11:03;5.88;;;2.00;;
35114;SDS011;21292;52.416;13.046;2023-07-13T06:13:32;2.90;;;1.88;;
35114;SDS011;21292;52.416;13.046;2023-07-13T06:16:01;3.40;;;1.85;;
35114;SDS011;21292;52.416;13.046;2023-07-13T06:18:31;5.32;;;1.70;;
35114;SDS011;21292;52.416;13.046;2023-07-13T06:20:59;6.88;;;1.92;;
35114;SDS011;21292;52.416;13.046;2023-07-13T06:23:28;3.20;;;1.80;;
35114;SDS011;21292;52.416;13.046;2023-07-13T06:25:59;6.07;;;1.65;;
35114;SDS011;21292;52.416;13.046;2023-07-13T06:28:29;2.83;;;1.50;;
35114;SDS011;21292;52.416;13.046;2023-07-13T06:30:58;9.60;;;2.17;;
35114;SDS011;21292;52.416;13.046;2023-07-13T06:33:31;4.97;;;1.80;;
35114;SDS011;21292;52.416;13.046;2023-07-13T06:36:00;2.13;;;1.30;;
35114;SDS011;21292;52.416;13.046;2023-07-13T06:38:29;4.53;;;1.83;;
35114;SDS011;21292;52.416;13.046;2023-07-13T06:40:58;3.78;;;1.90;;
35114;SDS011;21292;52.416;13.046;2023-07-13T06:43:26;4.38;;;2.17;;
35114;SDS011;21292;52.416;13.046;2023-07-13T06:45:56;4.25;;;1.92;;
35114;SDS011;21292;52.416;13.046;2023-07-13T06:48:24;4.78;;;1.88;;
35114;SDS011;21292;52.416;13.046;2023-07-13T06:50:53;4.93;;;1.95;;
35114;SDS011;21292;52.416;13.046;2023-07-13T06:53:21;3.80;;;1.50;;
35114;SDS011;21292;52.416;13.046;2023-07-13T06:55:50;2.22;;;1.30;;
35114;SDS011;21292;52.416;13.046;2023-07-13T06:58:21;2.07;;;1.43;;
35114;SDS011;21292;52.416;13.046;2023-07-13T07:00:50;2.70;;;1.48;;
35114;SDS011;21292;52.416;13.046;2023-07-13T07:03:21;5.45;;;1.48;;
35114;SDS011;21292;52.416;13.046;2023-07-13T07:05:49;4.63;;;1.75;;
35114;SDS011;21292;52.416;13.046;2023-07-13T07:08:20;3.25;;;1.65;;
35114;SDS011;21292;52.416;13.046;2023-07-13T07:10:50;3.95;;;1.90;;
35114;SDS011;21292;52.416;13.046;2023-07-13T07:13:21;4.10;;;1.80;;
35114;SDS011;21292;52.416;13.046;2023-07-13T07:15:49;4.40;;;2.05;;
35114;SDS011;21292;52.416;13.046;2023-07-13T07:18:18;5.03;;;1.70;;
35114;SDS011;21292;52.416;13.046;2023-07-13T07:20:48;3.17;;;1.40;;
35114;SDS011;21292;52.416;13.046;2023-07-13T07:23:16;5.07;;;1.40;;
35114;SDS011;21292;52.416;13.046;2023-07-13T07:25:45;2.53;;;1.30;;
35114;SDS011;21292;52.416;13.046;2023-07-13T07:28:14;4.65;;;1.70;;
35114;SDS011;21292;52.416;13.046;2023-07-13T07:30:47;5.00;;;1.90;;
35114;SDS011;21292;52.416;13.046;2023-07-13T07:33:19;4.20;;;1.48;;
35114;SDS011;21292;52.416;13.046;2023-07-13T07:35:49;3.65;;;1.65;;
35114;SDS011;21292;52.416;13.046;2023-07-13T07:38:21;3.25;;;1.35;;
35114;SDS011;21292;52.416;13.046;2023-07-13T07:40:50;4.80;;;1.60;;
35114;SDS011;21292;52.416;13.046;2023-07-13T07:43:22;5.90;;;1.85;;
35114;SDS011;21292;52.416;13.046;2023-07-13T07:45:50;4.35;;;1.88;;
35114;SDS011;21292;52.416;13.046;2023-07-13T07:48:18;2.70;;;1.40;;
35114;SDS011;21292;52.416;13.046;2023-07-13T07:50:46;3.58;;;1.80;;
35114;SDS011;21292;52.416;13.046;2023-07-13T07:53:16;4.75;;;1.45;;
35114;SDS011;21292;52.416;13.046;2023-07-13T07:55:45;6.03;;;1.83;;
35114;SDS011;21292;52.416;13.046;2023-07-13T08:01:05;11.13;;;1.90;;
35114;SDS011;21292;52.416;13.046;2023-07-13T08:06:07;4.85;;;1.50;;
35114;SDS011;21292;52.416;13.046;2023-07-13T08:08:40;6.53;;;1.80;;
35114;SDS011;21292;52.416;13.046;2023-07-13T08:11:08;2.42;;;1.45;;
35114;SDS011;21292;52.416;13.046;2023-07-13T08:13:43;3.53;;;1.90;;
35114;SDS011;21292;52.416;13.046;2023-07-13T08:16:12;5.00;;;2.00;;
35114;SDS011;21292;52.416;13.046;2023-07-13T08:18:41;3.53;;;1.52;;
35114;SDS011;21292;52.416;13.046;2023-07-13T08:21:09;3.15;;;1.40;;
35114;SDS011;21292;52.416;13.046;2023-07-13T08:23:38;6.93;;;2.28;;
35114;SDS011;21292;52.416;13.046;2023-07-13T08:26:08;7.35;;;1.85;;
35114;SDS011;21292;52.416;13.046;2023-07-13T08:28:37;6.22;;;2.00;;
35114;SDS011;21292;52.416;13.046;2023-07-13T08:31:06;8.80;;;2.42;;
35114;SDS011;21292;52.416;13.046;2023-07-13T08:33:35;3.95;;;1.85;;
35114;SDS011;21292;52.416;13.046;2023-07-13T08:36:05;3.88;;;1.67;;
35114;SDS011;21292;52.416;13.046;2023-07-13T08:38:33;3.65;;;1.58;;
35114;SDS011;21292;52.416;13.046;2023-07-13T08:41:09;2.58;;;1.30;;
35114;SDS011;21292;52.416;13.046;2023-07-13T08:43:40;3.05;;;1.75;;
35114;SDS011;21292;52.416;13.046;2023-07-13T08:46:10;3.42;;;1.60;;
35114;SDS011;21292;52.416;13.046;2023-07-13T08:48:44;4.03;;;1.95;;
35114;SDS011;21292;52.416;13.046;2023-07-13T08:51:19;3.80;;;1.45;;
35114;SDS011;21292;52.416;13.046;2023-07-13T08:53:58;5.18;;;1.75;;
35114;SDS011;21292;52.416;13.046;2023-07-13T08:56:30;3.67;;;1.58;;
35114;SDS011;21292;52.416;13.046;2023-07-13T08:59:00;4.85;;;1.60;;
35114;SDS011;21292;52.416;13.046;2023-07-13T09:01:40;4.07;;;1.65;;
35114;SDS011;21292;52.416;13.046;2023-07-13T09:04:21;7.20;;;2.35;;
35114;SDS011;21292;52.416;13.046;2023-07-13T09:06:55;4.75;;;1.80;;
35114;SDS011;21292;52.416;13.046;2023-07-13T09:09:30;12.98;;;2.08;;
35114;SDS011;21292;52.416;13.046;2023-07-13T09:12:09;5.70;;;2.15;;
35114;SDS011;21292;52.416;13.046;2023-07-13T09:14:42;6.25;;;2.42;;
35114;SDS011;21292;52.416;13.046;2023-07-13T09:17:12;4.80;;;2.30;;
35114;SDS011;21292;52.416;13.046;2023-07-13T09:19:44;4.47;;;2.42;;
35114;SDS011;21292;52.416;13.046;2023-07-13T09:22:19;5.35;;;2.05;;
35114;SDS011;21292;52.416;13.046;2023-07-13T09:24:51;5.53;;;2.35;;
35114;SDS011;21292;52.416;13.046;2023-07-13T09:27:26;5.68;;;1.90;;
35114;SDS011;21292;52.416;13.046;2023-07-13T09:30:01;4.78;;;1.70;;
35114;SDS011;21292;52.416;13.046;2023-07-13T09:32:35;5.18;;;1.90;;
35114;SDS011;21292;52.416;13.046;2023-07-13T09:35:07;5.70;;;2.65;;
35114;SDS011;21292;52.416;13.046;2023-07-13T09:37:37;8.13;;;2.00;;
35114;SDS011;21292;52.416;13.046;2023-07-13T09:40:08;4.05;;;2.00;;
35114;SDS011;21292;52.416;13.046;2023-07-13T09:42:57;5.95;;;1.80;;
35114;SDS011;21292;52.416;13.046;2023-07-13T09:45:27;3.55;;;1.77;;
35114;SDS011;21292;52.416;13.046;2023-07-13T09:48:03;2.15;;;1.80;;
35114;SDS011;21292;52.416;13.046;2023-07-13T09:50:34;4.40;;;2.15;;
35114;SDS011;21292;52.416;13.046;2023-07-13T09:53:03;3.85;;;1.85;;
35114;SDS011;21292;52.416;13.046;2023-07-13T09:55:32;4.78;;;2.00;;
35114;SDS011;21292;52.416;13.046;2023-07-13T09:58:06;4.53;;;2.20;;
35114;SDS011;21292;52.416;13.046;2023-07-13T10:00:41;7.47;;;2.13;;
35114;SDS011;21292;52.416;13.046;2023-07-13T10:03:16;7.13;;;2.45;;
35114;SDS011;21292;52.416;13.046;2023-07-13T10:05:46;4.75;;;2.03;;
35114;SDS011;21292;52.416;13.046;2023-07-13T10:08:19;5.78;;;2.75;;
35114;SDS011;21292;52.416;13.046;2023-07-13T10:10:57;4.78;;;2.17;;
35114;SDS011;21292;52.416;13.046;2023-07-13T10:13:34;5.45;;;2.17;;
35114;SDS011;21292;52.416;13.046;2023-07-13T10:16:04;6.50;;;2.90;;
35114;SDS011;21292;52.416;13.046;2023-07-13T10:18:38;2.83;;;2.20;;
35114;SDS011;21292;52.416;13.046;2023-07-13T10:21:10;4.95;;;2.78;;
35114;SDS011;21292;52.416;13.046;2023-07-13T10:23:43;5.10;;;2.28;;
35114;SDS011;21292;52.416;13.046;2023-07-13T10:26:15;7.68;;;3.10;;
35114;SDS011;21292;52.416;13.046;2023-07-13T10:28:46;8.85;;;3.15;;
35114;SDS011;21292;52.416;13.046;2023-07-13T10:33:47;5.00;;;2.50;;
35114;SDS011;21292;52.416;13.046;2023-07-13T10:36:17;4.78;;;2.67;;
35114;SDS011;21292;52.416;13.046;2023-07-13T10:39:02;4.53;;;2.80;;
35114;SDS011;21292;52.416;13.046;2023-07-13T10:41:35;9.68;;;2.47;;
35114;SDS011;21292;52.416;13.046;2023-07-13T10:44:09;5.93;;;1.90;;
35114;SDS011;21292;52.416;13.046;2023-07-13T10:46:43;7.68;;;2.45;;
35114;SDS011;21292;52.416;13.046;2023-07-13T10:49:13;5.22;;;2.83;;
35114;SDS011;21292;52.416;13.046;2023-07-13T10:51:42;4.47;;;2.30;;
35114;SDS011;21292;52.416;13.046;2023-07-13T10:54:12;5.38;;;2.25;;
35114;SDS011;21292;52.416;13.046;2023-07-13T10:56:48;6.38;;;2.97;;
35114;SDS011;21292;52.416;13.046;2023-07-13T10:59:24;4.00;;;2.30;;
35114;SDS011;21292;52.416;13.046;2023-07-13T11:01:56;8.88;;;2.92;;
35114;SDS011;21292;52.416;13.046;2023-07-13T11:04:29;8.23;;;2.97;;
35114;SDS011;21292;52.416;13.046;2023-07-13T11:06:59;4.88;;;2.53;;
35114;SDS011;21292;52.416;13.046;2023-07-13T11:09:43;5.85;;;2.58;;
35114;SDS011;21292;52.416;13.046;2023-07-13T11:12:27;8.30;;;3.25;;
35114;SDS011;21292;52.416;13.046;2023-07-13T11:15:09;5.47;;;2.45;;
35114;SDS011;21292;52.416;13.046;2023-07-13T11:20:32;10.15;;;2.47;;
35114;SDS011;21292;52.416;13.046;2023-07-13T11:23:17;9.55;;;2.60;;
35114;SDS011;21292;52.416;13.046;2023-07-13T11:25:51;4.93;;;2.03;;
35114;SDS011;21292;52.416;13.046;2023-07-13T11:28:23;5.13;;;2.15;;
35114;SDS011;21292;52.416;13.046;2023-07-13T11:31:01;8.32;;;2.42;;
35114;SDS011;21292;52.416;13.046;2023-07-13T11:33:45;8.18;;;2.55;;
35114;SDS011;21292;52.416;13.046;2023-07-13T11:36:23;5.93;;;2.63;;
35114;SDS011;21292;52.416;13.046;2023-07-13T11:38:57;5.82;;;1.85;;
35114;SDS011;21292;52.416;13.046;2023-07-13T11:41:30;7.70;;;2.30;;
35114;SDS011;21292;52.416;13.046;2023-07-13T11:44:05;8.07;;;2.08;;
35114;SDS011;21292;52.416;13.046;2023-07-13T11:46:36;4.03;;;1.63;;
35114;SDS011;21292;52.416;13.046;2023-07-13T11:49:05;4.63;;;1.98;;
35114;SDS011;21292;52.416;13.046;2023-07-13T11:51:34;3.63;;;1.80;;
35114;SDS011;21292;52.416;13.046;2023-07-13T11:54:04;4.13;;;1.50;;
35114;SDS011;21292;52.416;13.046;2023-07-13T11:56:35;4.20;;;1.80;;
35114;SDS011;21292;52.416;13.046;2023-07-13T11:59:05;3.90;;;1.65;;
35114;SDS011;21292;52.416;13.046;2023-07-13T12:01:36;7.32;;;1.83;;
35114;SDS011;21292;52.416;13.046;2023-07-13T12:04:14;8.88;;;2.22;;
35114;SDS011;21292;52.416;13.046;2023-07-13T12:06:54;5.03;;;2.00;;
35114;SDS011;21292;52.416;13.046;2023-07-13T12:09:25;5.10;;;2.00;;
35114;SDS011;21292;52.416;13.046;2023-07-13T12:11:56;6.50;;;1.88;;
35114;SDS011;21292;52.416;13.046;2023-07-13T12:16:56;10.93;;;2.55;;
35114;SDS011;21292;52.416;13.046;2023-07-13T12:19:25;3.55;;;1.90;;
35114;SDS011;21292;52.416;13.046;2023-07-13T12:21:56;1.83;;;1.45;;
35114;SDS011;21292;52.416;13.046;2023-07-13T12:24:25;3.92;;;1.67;;
35114;SDS011;21292;52.416;13.046;2023-07-13T12:26:59;8.13;;;2.00;;
35114;SDS011;21292;52.416;13.046;2023-07-13T12:29:33;2.80;;;1.63;;
35114;SDS011;21292;52.416;13.046;2023-07-13T12:32:07;5.78;;;1.60;;
35114;SDS011;21292;52.416;13.046;2023-07-13T12:34:49;6.45;;;2.08;;
35114;SDS011;21292;52.416;13.046;2023-07-13T12:37:19;5.38;;;1.88;;
35114;SDS011;21292;52.416;13.046;2023-07-13T12:39:49;2.90;;;1.80;;
35114;SDS011;21292;52.416;13.046;2023-07-13T12:42:19;6.50;;;1.90;;
35114;SDS011;21292;52.416;13.046;2023-07-13T12:44:52;5.30;;;1.83;;
35114;SDS011;21292;52.416;13.046;2023-07-13T12:47:23;5.07;;;2.05;;
35114;SDS011;21292;52.416;13.046;2023-07-13T12:49:54;5.75;;;2.17;;
35114;SDS011;21292;52.416;13.046;2023-07-13T12:52:27;5.15;;;2.20;;
35114;SDS011;21292;52.416;13.046;2023-07-13T12:55:04;6.07;;;2.00;;
35114;SDS011;21292;52.416;13.046;2023-07-13T12:57:39;3.53;;;1.30;;
35114;SDS011;21292;52.416;13.046;2023-07-13T13:00:23;4.80;;;1.60;;
35114;SDS011;21292;52.416;13.046;2023-07-13T13:02:55;3.78;;;1.70;;
35114;SDS011;21292;52.416;13.046;2023-07-13T13:05:44;6.68;;;2.00;;
35114;SDS011;21292;52.416;13.046;2023-07-13T13:08:13;3.30;;;1.50;;
35114;SDS011;21292;52.416;13.046;2023-07-13T13:10:44;4.65;;;1.33;;
35114;SDS011;21292;52.416;13.046;2023-07-13T13:13:13;3.38;;;1.70;;
35114;SDS011;21292;52.416;13.046;2023-07-13T13:15:41;4.43;;;1.67;;
35114;SDS011;21292;52.416;13.046;2023-07-13T13:18:16;3.80;;;1.60;;
35114;SDS011;21292;52.416;13.046;2023-07-13T13:20:49;5.10;;;1.67;;
35114;SDS011;21292;52.416;13.046;2023-07-13T13:23:18;4.53;;;1.52;;
35114;SDS011;21292;52.416;13.046;2023-07-13T13:25:50;5.13;;;2.00;;
35114;SDS011;21292;52.416;13.046;2023-07-13T13:28:19;5.57;;;1.58;;
35114;SDS011;21292;52.416;13.046;2023-07-13T13:30:48;6.35;;;2.33;;
35114;SDS011;21292;52.416;13.046;2023-07-13T13:33:19;4.57;;;1.65;;
35114;SDS011;21292;52.416;13.046;2023-07-13T13:35:48;7.40;;;1.98;;
35114;SDS011;21292;52.416;13.046;2023-07-13T13:38:17;6.35;;;1.75;;
35114;SDS011;21292;52.416;13.046;2023-07-13T13:40:47;4.03;;;1.27;;
35114;SDS011;21292;52.416;13.046;2023-07-13T13:43:18;7.75;;;1.77;;
35114;SDS011;21292;52.416;13.046;2023-07-13T13:45:48;6.97;;;1.38;;
35114;SDS011;21292;52.416;13.046;2023-07-13T13:48:20;4.57;;;1.60;;
35114;SDS011;21292;52.416;13.046;2023-07-13T13:50:54;6.50;;;1.60;;
35114;SDS011;21292;52.416;13.046;2023-07-13T13:53:22;4.38;;;1.42;;
35114;SDS011;21292;52.416;13.046;2023-07-13T13:55:52;3.95;;;1.48;;
35114;SDS011;21292;52.416;13.046;2023-07-13T13:58:21;7.40;;;1.75;;
35114;SDS011;21292;52.416;13.046;2023-07-13T14:00:50;4.15;;;1.60;;
35114;SDS011;21292;52.416;13.046;2023-07-13T14:03:21;5.13;;;1.58;;
35114;SDS011;21292;52.416;13.046;2023-07-13T14:05:50;3.55;;;1.58;;
35114;SDS011;21292;52.416;13.046;2023-07-13T14:08:20;3.20;;;1.48;;
35114;SDS011;21292;52.416;13.046;2023-07-13T14:10:51;2.70;;;1.33;;
35114;SDS011;21292;52.416;13.046;2023-07-13T14:13:21;6.57;;;1.77;;
35114;SDS011;21292;52.416;13.046;2023-07-13T14:15:56;2.35;;;1.17;;
35114;SDS011;21292;52.416;13.046;2023-07-13T14:18:27;4.18;;;1.20;;
35114;SDS011;21292;52.416;13.046;2023-07-13T14:20:55;7.28;;;1.70;;
35114;SDS011;21292;52.416;13.046;2023-07-13T14:23:23;3.10;;;1.15;;
35114;SDS011;21292;52.416;13.046;2023-07-13T14:25:52;3.75;;;1.02;;
35114;SDS011;21292;52.416;13.046;2023-07-13T14:28:23;8.32;;;1.05;;
35114;SDS011;21292;52.416;13.046;2023-07-13T14:33:21;2.25;;;1.00;;
35114;SDS011;21292;52.416;13.046;2023-07-13T14:35:51;3.90;;;1.23;;
35114;SDS011;21292;52.416;13.046;2023-07-13T14:38:20;4.13;;;1.05;;
35114;SDS011;21292;52.416;13.046;2023-07-13T14:40:50;2.50;;;1.30;;
35114;SDS011;21292;52.416;13.046;2023-07-13T14:43:18;3.45;;;1.60;;
35114;SDS011;21292;52.416;13.046;2023-07-13T14:45:52;4.97;;;1.33;;
35114;SDS011;21292;52.416;13.046;2023-07-13T14:48:22;1.07;;;0.70;;
35114;SDS011;21292;52.416;13.046;2023-07-13T14:50:56;3.10;;;1.52;;
35114;SDS011;21292;52.416;13.046;2023-07-13T14:53:26;6.18;;;1.02;;
35114;SDS011;21292;52.416;13.046;2023-07-13T14:55:54;2.42;;;0.88;;
35114;SDS011;21292;52.416;13.046;2023-07-13T14:58:23;5.80;;;1.15;;
35114;SDS011;21292;52.416;13.046;2023-07-13T15:00:52;4.55;;;1.02;;
35114;SDS011;21292;52.416;13.046;2023-07-13T15:03:23;2.72;;;1.10;;
35114;SDS011;21292;52.416;13.046;2023-07-13T15:05:56;3.92;;;1.17;;
35114;SDS011;21292;52.416;13.046;2023-07-13T15:08:25;1.13;;;0.85;;
35114;SDS011;21292;52.416;13.046;2023-07-13T15:10:54;2.03;;;1.10;;